createdAt,value
2022-08-16T00:00:39.159Z,91.94
2022-08-16T00:01:35.656Z,92.75
2022-08-16T00:02:36.350Z,92.85
2022-08-16T00:03:37.811Z,92.45
2022-08-16T00:04:35.304Z,92.35
2022-08-16T00:05:36.570Z,92.65
2022-08-16T00:06:36.546Z,92.25
2022-08-16T00:07:36.118Z,92.85
2022-08-16T00:08:37.664Z,92.59
2022-08-16T00:09:35.819Z,91.89
2022-08-16T00:10:35.316Z,92.14
2022-08-16T00:11:37.913Z,91.28
2022-08-16T00:12:35.237Z,91.85
2022-08-16T00:13:41.945Z,92.65
2022-08-16T00:15:51.089Z,91.74
2022-08-16T00:20:55.597Z,92.29
2022-08-16T00:21:29.548Z,92.49
2022-08-16T00:22:29.544Z,92.29
2022-08-16T00:23:34.728Z,92.69
2022-08-16T00:24:31.064Z,92.79
2022-08-16T00:26:34.592Z,92.49
2022-08-16T00:26:45.303Z,92.09
2022-08-16T00:27:30.794Z,91.58
2022-08-16T00:32:36.763Z,92.09
2022-08-16T00:33:37.726Z,91.99
2022-08-16T00:38:57.063Z,91.89
2022-08-16T00:39:30.232Z,92.49
2022-08-16T00:40:34.045Z,92.29
2022-08-16T00:41:31.052Z,91.99
2022-08-16T00:42:31.726Z,91.38
2022-08-16T00:43:40.770Z,91.58
2022-08-16T00:44:32.849Z,91.38
2022-08-16T00:45:30.130Z,91.08
2022-08-16T00:46:33.533Z,90.48
2022-08-16T00:47:30.163Z,90.28
2022-08-16T00:48:30.964Z,89.26
2022-08-16T00:49:39.117Z,90.48
2022-08-16T00:50:36.102Z,91.38
2022-08-16T00:51:30.296Z,90.17
2022-08-16T00:52:30.878Z,90.68
2022-08-16T00:53:30.676Z,91.18
2022-08-16T00:54:29.980Z,89.47
2022-08-16T00:55:38.123Z,89.37
2022-08-16T00:56:55.573Z,89.37
2022-08-16T00:57:44.514Z,88.66
2022-08-16T00:58:34.529Z,89.12
2022-08-16T00:59:29.958Z,88.46
2022-08-16T01:00:30.093Z,88.62
2022-08-16T01:01:29.925Z,88.72
2022-08-16T01:02:33.100Z,88.72
2022-08-16T01:03:35.019Z,89.43
2022-08-16T01:04:31.011Z,89.32
2022-08-16T01:05:30.554Z,88.82
2022-08-16T01:06:40.576Z,88.62
2022-08-16T01:07:29.861Z,88.82
2022-08-16T01:08:36.168Z,88.92
2022-08-16T01:09:33.517Z,88.52
2022-08-16T01:10:32.404Z,88.02
2022-08-16T01:11:29.801Z,88.62
2022-08-16T01:12:30.085Z,89.12
2022-08-16T01:13:29.791Z,88.72
2022-08-16T01:14:30.211Z,88.92
2022-08-16T01:15:30.590Z,89.63
2022-08-16T01:16:29.765Z,89.32
2022-08-16T01:17:29.755Z,89.63
2022-08-16T01:18:39.983Z,89.12
2022-08-16T01:19:29.754Z,89.63
2022-08-16T01:20:30.327Z,89.63
2022-08-16T01:21:33.861Z,90.64
2022-08-16T01:22:49.523Z,90.44
2022-08-16T01:23:58.642Z,90.33
2022-08-16T01:24:53.314Z,89.93
2022-08-16T01:25:34.202Z,90.13
2022-08-16T01:26:34.478Z,90.03
2022-08-16T01:27:29.672Z,90.44
2022-08-16T01:28:30.795Z,90.33
2022-08-16T01:29:57.263Z,90.03
2022-08-16T01:30:30.558Z,90.53
2022-08-16T01:31:30.997Z,91.28
2022-08-16T01:32:33.624Z,90.37
2022-08-16T01:33:33.154Z,91.58
2022-08-16T01:34:29.595Z,91.28
2022-08-16T01:35:30.571Z,91.28
2022-08-16T01:36:30.544Z,90.58
2022-08-16T01:37:35.717Z,91.08
2022-08-16T01:38:31.205Z,91.69
2022-08-16T01:39:29.626Z,91.28
2022-08-16T01:40:29.518Z,90.37
2022-08-16T01:41:44.988Z,91.38
2022-08-16T01:42:29.491Z,90.78
2022-08-16T01:43:31.237Z,90.28
2022-08-16T01:44:33.503Z,91.18
2022-08-16T01:45:39.685Z,90.98
2022-08-16T01:46:39.415Z,91.38
2022-08-16T01:47:29.532Z,91.69
2022-08-16T01:48:30.196Z,91.99
2022-08-16T01:49:42.866Z,91.38
2022-08-16T01:51:09.139Z,90.98
2022-08-16T01:51:29.402Z,91.08
2022-08-16T01:52:30.568Z,91.99
2022-08-16T01:53:29.398Z,90.37
2022-08-16T01:54:30.520Z,90.78
2022-08-16T01:55:35.455Z,90.78
2022-08-16T01:56:29.596Z,91.28
2022-08-16T01:57:31.556Z,90.98
2022-08-16T01:58:29.328Z,89.67
2022-08-16T01:59:29.361Z,90.68
2022-08-16T02:00:30.078Z,90.17
2022-08-16T02:01:30.152Z,90.07
2022-08-16T02:02:29.604Z,90.88
2022-08-16T02:03:29.285Z,91.38
2022-08-16T02:04:48.134Z,91.28
2022-08-16T02:05:30.635Z,90.78
2022-08-16T02:06:34.354Z,90.48
2022-08-16T02:07:30.656Z,87.45
2022-08-16T02:08:33.768Z,89.26
2022-08-16T02:09:33.774Z,88.96
2022-08-16T02:10:29.466Z,89.93
2022-08-16T02:11:47.653Z,88.76
2022-08-16T02:12:49.692Z,88.96
2022-08-16T02:13:32.715Z,88.96
2022-08-16T02:14:29.604Z,87.05
2022-08-16T02:15:29.199Z,86.24
2022-08-16T02:16:29.143Z,86.24
2022-08-16T02:17:29.130Z,88.06
2022-08-16T02:18:29.124Z,88.52
2022-08-16T02:19:58.713Z,87.82
2022-08-16T02:20:30.358Z,86.91
2022-08-16T02:21:31.400Z,87.82
2022-08-16T02:22:34.109Z,87.01
2022-08-16T02:23:29.580Z,86.91
2022-08-16T02:24:41.154Z,88.02
2022-08-16T02:25:52.407Z,88.02
2022-08-16T02:26:29.048Z,88.12
2022-08-16T02:27:29.030Z,88.16
2022-08-16T02:28:29.219Z,88.66
2022-08-16T02:29:32.110Z,88.86
2022-08-16T02:30:36.684Z,88.76
2022-08-16T02:32:03.589Z,88.76
2022-08-16T02:32:49.796Z,89.37
2022-08-16T02:33:43.636Z,89.47
2022-08-16T02:34:34.801Z,89.17
2022-08-16T02:35:28.979Z,89.67
2022-08-16T02:36:47.199Z,88.86
2022-08-16T02:37:51.308Z,88.90
2022-08-16T02:38:28.948Z,88.70
2022-08-16T02:39:30.256Z,88.40
2022-08-16T02:40:28.899Z,88.30
2022-08-16T02:41:29.121Z,88.60
2022-08-16T02:42:28.904Z,88.50
2022-08-16T02:43:28.875Z,89.51
2022-08-16T02:44:30.493Z,89.31
2022-08-16T02:45:28.858Z,89.71
2022-08-16T02:46:30.014Z,89.71
2022-08-16T02:47:29.019Z,90.82
2022-08-16T02:48:30.948Z,91.42
2022-08-16T02:50:52.874Z,91.02
2022-08-16T02:51:11.048Z,90.82
2022-08-16T02:51:34.189Z,91.13
2022-08-16T02:52:29.249Z,91.63
2022-08-16T02:53:29.005Z,91.06
2022-08-16T02:54:29.571Z,90.32
2022-08-16T02:55:40.646Z,90.77
2022-08-16T02:56:32.406Z,90.16
2022-08-16T02:57:28.743Z,90.06
2022-08-16T02:58:29.116Z,90.46
2022-08-16T02:59:39.801Z,90.56
2022-08-16T03:00:34.149Z,90.26
2022-08-16T03:01:36.555Z,89.75
2022-08-16T03:02:32.155Z,89.55
2022-08-16T03:04:29.962Z,89.65
2022-08-16T03:04:56.351Z,89.35
2022-08-16T03:05:36.527Z,89.25
2022-08-16T03:06:41.421Z,88.85
2022-08-16T03:07:29.609Z,89.35
2022-08-16T03:08:50.487Z,89.25
2022-08-16T03:09:29.912Z,89.55
2022-08-16T03:10:33.423Z,89.25
2022-08-16T03:11:35.474Z,89.25
2022-08-16T03:12:30.296Z,89.86
2022-08-16T03:13:29.270Z,89.95
2022-08-16T03:14:28.560Z,89.86
2022-08-16T03:15:28.822Z,89.95
2022-08-16T03:16:38.397Z,89.86
2022-08-16T03:17:32.133Z,89.65
2022-08-16T03:18:34.629Z,90.66
2022-08-16T03:19:47.024Z,89.65
2022-08-16T03:20:32.473Z,90.06
2022-08-16T03:21:38.846Z,89.65
2022-08-16T03:22:29.712Z,90.36
2022-08-16T03:23:35.786Z,89.15
2022-08-16T03:24:33.683Z,89.35
2022-08-16T03:25:41.182Z,88.95
2022-08-16T03:26:29.099Z,89.35
2022-08-16T03:27:30.574Z,90.06
2022-08-16T03:28:28.417Z,88.54
2022-08-16T03:29:29.964Z,89.45
2022-08-16T03:30:29.084Z,90.26
2022-08-16T03:31:34.781Z,89.05
2022-08-16T03:32:28.359Z,89.45
2022-08-16T03:33:29.922Z,88.75
2022-08-16T03:34:28.625Z,88.45
2022-08-16T03:35:32.706Z,88.54
2022-08-16T03:36:31.173Z,89.15
2022-08-16T03:37:29.098Z,88.54
2022-08-16T03:38:34.470Z,88.95
2022-08-16T03:39:28.381Z,87.23
2022-08-16T03:40:31.869Z,86.93
2022-08-16T03:41:29.326Z,88.75
2022-08-16T03:42:28.302Z,89.25
2022-08-16T03:43:51.210Z,87.13
2022-08-16T03:44:44.646Z,87.63
2022-08-16T03:45:31.289Z,87.23
2022-08-16T03:46:47.420Z,87.34
2022-08-16T03:47:28.231Z,87.54
2022-08-16T03:48:37.078Z,87.03
2022-08-16T03:49:36.707Z,87.03
2022-08-16T03:50:28.194Z,87.34
2022-08-16T03:51:28.182Z,87.34
2022-08-16T03:52:31.298Z,87.13
2022-08-16T03:53:37.630Z,87.63
2022-08-16T03:54:28.513Z,87.03
2022-08-16T03:55:31.331Z,87.03
2022-08-16T03:56:31.366Z,87.58
2022-08-16T03:57:31.665Z,88.08
2022-08-16T03:58:28.135Z,87.68
2022-08-16T03:59:29.754Z,87.48
2022-08-16T04:00:36.166Z,87.88
2022-08-16T04:01:29.159Z,87.58
2022-08-16T04:02:31.281Z,87.78
2022-08-16T04:03:28.061Z,87.58
2022-08-16T04:04:32.618Z,87.18
2022-08-16T04:05:28.043Z,87.38
2022-08-16T04:06:28.281Z,87.78
2022-08-16T04:07:28.004Z,87.78
2022-08-16T04:08:28.023Z,87.68
2022-08-16T04:09:27.027Z,87.58
2022-08-16T04:10:28.041Z,88.08
2022-08-16T04:11:27.978Z,88.18
2022-08-16T04:12:54.875Z,88.18
2022-08-16T04:14:01.097Z,88.08
2022-08-16T04:14:31.095Z,88.68
2022-08-16T04:15:27.939Z,88.79
2022-08-16T04:16:28.267Z,89.19
2022-08-16T04:17:27.923Z,89.39
2022-08-16T04:18:27.929Z,89.39
2022-08-16T04:19:31.474Z,89.70
2022-08-16T04:20:34.046Z,89.50
2022-08-16T04:21:29.508Z,90.10
2022-08-16T04:22:28.026Z,89.94
2022-08-16T04:23:28.707Z,90.04
2022-08-16T04:24:29.052Z,90.34
2022-08-16T04:25:27.818Z,89.84
2022-08-16T04:26:30.944Z,90.04
2022-08-16T04:27:28.871Z,90.34
2022-08-16T04:28:51.582Z,90.55
2022-08-16T04:29:27.829Z,90.55
2022-08-16T04:30:32.188Z,90.34
2022-08-16T04:31:28.102Z,90.24
2022-08-16T04:32:27.748Z,90.34
2022-08-16T04:33:27.761Z,90.14
2022-08-16T04:34:28.026Z,90.55
2022-08-16T04:35:27.731Z,90.79
2022-08-16T04:36:27.709Z,90.89
2022-08-16T04:37:27.696Z,90.79
2022-08-16T04:38:27.691Z,91.60
2022-08-16T04:39:47.471Z,91.60
2022-08-16T04:40:27.751Z,90.89
2022-08-16T04:41:32.436Z,90.79
2022-08-16T04:42:29.906Z,90.99
2022-08-16T04:43:27.660Z,91.09
2022-08-16T04:44:33.005Z,90.89
2022-08-16T04:45:35.629Z,90.89
2022-08-16T04:47:01.344Z,90.45
2022-08-16T04:47:33.296Z,91.25
2022-08-16T04:48:28.564Z,90.75
2022-08-16T04:49:27.611Z,90.14
2022-08-16T04:50:30.396Z,89.43
2022-08-16T04:51:27.558Z,90.34
2022-08-16T04:52:33.186Z,90.34
2022-08-16T04:53:27.556Z,90.24
2022-08-16T04:54:27.536Z,90.14
2022-08-16T04:55:37.649Z,90.14
2022-08-16T04:56:27.500Z,90.24
2022-08-16T04:57:30.200Z,90.45
2022-08-16T04:58:45.787Z,90.04
2022-08-16T04:59:29.584Z,90.45
2022-08-16T05:00:32.395Z,89.84
2022-08-16T05:01:57.837Z,89.23
2022-08-16T05:02:41.902Z,89.84
2022-08-16T05:03:27.524Z,89.84
2022-08-16T05:04:30.087Z,90.04
2022-08-16T05:05:30.644Z,89.74
2022-08-16T05:06:45.178Z,90.24
2022-08-16T05:07:27.393Z,89.94
2022-08-16T05:08:28.969Z,90.24
2022-08-16T05:09:28.496Z,89.64
2022-08-16T05:10:27.369Z,89.54
2022-08-16T05:11:32.065Z,89.94
2022-08-16T05:12:30.483Z,89.84
2022-08-16T05:13:40.417Z,89.54
2022-08-16T05:14:45.759Z,89.43
2022-08-16T05:15:27.325Z,89.74
2022-08-16T05:16:27.309Z,89.54
2022-08-16T05:17:27.300Z,89.94
2022-08-16T05:18:27.527Z,89.79
2022-08-16T05:19:27.283Z,88.68
2022-08-16T05:20:35.542Z,89.59
2022-08-16T05:21:27.258Z,89.59
2022-08-16T05:22:28.331Z,90.10
2022-08-16T05:23:27.241Z,90.00
2022-08-16T05:24:27.273Z,89.90
2022-08-16T05:25:32.551Z,90.61
2022-08-16T05:26:28.069Z,88.89
2022-08-16T05:27:27.216Z,88.89
2022-08-16T05:28:31.027Z,90.00
2022-08-16T05:30:38.385Z,88.89
2022-08-16T05:31:38.660Z,89.59
2022-08-16T05:32:47.432Z,89.39
2022-08-16T05:33:42.072Z,87.88
2022-08-16T05:34:38.652Z,88.45
2022-08-16T05:35:38.651Z,89.86
2022-08-16T05:36:38.626Z,87.74
2022-08-16T05:37:39.762Z,87.94
2022-08-16T05:38:39.370Z,88.04
2022-08-16T05:39:40.683Z,88.95
2022-08-16T05:40:38.558Z,88.85
2022-08-16T05:41:45.641Z,88.85
2022-08-16T05:42:38.579Z,87.84
2022-08-16T05:43:43.405Z,88.30
2022-08-16T05:44:38.575Z,88.40
2022-08-16T05:45:39.587Z,87.40
2022-08-16T05:46:43.804Z,87.80
2022-08-16T05:47:43.323Z,86.89
2022-08-16T05:48:38.490Z,86.89
2022-08-16T05:49:39.841Z,87.09
2022-08-16T05:50:38.473Z,86.58
2022-08-16T05:51:40.418Z,85.17
2022-08-16T05:52:38.437Z,86.15
2022-08-16T05:53:38.783Z,85.74
2022-08-16T05:54:40.889Z,84.94
2022-08-16T05:55:40.620Z,86.35
2022-08-16T05:56:38.405Z,85.60
2022-08-16T05:57:38.396Z,85.30
2022-08-16T05:58:38.369Z,83.99
2022-08-16T05:59:38.395Z,85.10
2022-08-16T06:00:38.390Z,84.49
2022-08-16T06:01:39.031Z,83.84
2022-08-16T06:02:38.341Z,83.65
2022-08-16T06:03:38.352Z,83.61
2022-08-16T06:04:42.337Z,82.40
2022-08-16T06:05:41.634Z,81.46
2022-08-16T06:06:38.490Z,81.76
2022-08-16T06:07:38.508Z,82.02
2022-08-16T06:08:44.829Z,79.50
2022-08-16T06:09:43.355Z,81.01
2022-08-16T06:10:38.286Z,80.77
2022-08-16T06:11:38.264Z,79.97
2022-08-16T06:12:38.246Z,80.54
2022-08-16T06:13:42.367Z,79.63
2022-08-16T06:14:38.243Z,77.59
2022-08-16T06:15:38.203Z,78.09
2022-08-16T06:16:38.194Z,74.94
2022-08-16T06:17:41.554Z,76.65
2022-08-16T06:18:38.200Z,75.91
2022-08-16T06:19:42.774Z,75.71
2022-08-16T06:20:55.131Z,75.77
2022-08-16T06:21:38.139Z,75.17
2022-08-16T06:22:39.774Z,74.77
2022-08-16T06:23:38.123Z,75.43
2022-08-16T06:24:54.955Z,74.84
2022-08-16T06:25:39.164Z,72.69
2022-08-16T06:26:45.989Z,73.00
2022-08-16T06:27:39.324Z,73.60
2022-08-16T06:28:39.109Z,73.26
2022-08-16T06:29:38.081Z,73.26
2022-08-16T06:30:43.395Z,72.56
2022-08-16T06:31:46.779Z,70.06
2022-08-16T06:32:43.128Z,72.56
2022-08-16T06:33:41.330Z,70.96
2022-08-16T06:34:55.248Z,70.32
2022-08-16T06:35:42.566Z,71.03
2022-08-16T06:36:38.074Z,72.13
2022-08-16T06:37:55.095Z,70.09
2022-08-16T06:38:56.054Z,71.09
2022-08-16T06:39:49.173Z,71.09
2022-08-16T06:40:39.796Z,68.26
2022-08-16T06:41:42.601Z,69.56
2022-08-16T06:42:49.211Z,71.26
2022-08-16T06:43:37.931Z,69.93
2022-08-16T06:44:37.910Z,69.32
2022-08-16T06:45:37.917Z,68.49
2022-08-16T06:46:39.520Z,69.89
2022-08-16T06:47:53.194Z,68.59
2022-08-16T06:48:42.841Z,69.20
2022-08-16T06:49:37.892Z,68.76
2022-08-16T06:50:37.864Z,69.26
2022-08-16T06:51:46.130Z,70.95
2022-08-16T06:53:00.535Z,69.56
2022-08-16T06:53:37.816Z,69.73
2022-08-16T06:54:40.464Z,68.43
2022-08-16T06:55:38.361Z,67.10
2022-08-16T06:56:37.782Z,66.70
2022-08-16T06:57:39.790Z,68.49
2022-08-16T06:58:37.743Z,67.60
2022-08-16T06:59:52.483Z,69.79
2022-08-16T07:00:37.984Z,69.16
2022-08-16T07:01:43.429Z,68.03
2022-08-16T07:02:37.859Z,67.63
2022-08-16T07:03:55.140Z,67.00
2022-08-16T07:04:37.692Z,65.18
2022-08-16T07:05:41.432Z,63.79
2022-08-16T07:06:37.677Z,65.38
2022-08-16T07:07:37.678Z,66.08
2022-08-16T07:08:37.651Z,65.78
2022-08-16T07:09:37.667Z,63.76
2022-08-16T07:10:37.646Z,62.93
2022-08-16T07:11:47.216Z,62.73
2022-08-16T07:12:47.581Z,62.93
2022-08-16T07:14:00.790Z,62.93
2022-08-16T07:14:37.603Z,62.43
2022-08-16T07:15:37.593Z,62.93
2022-08-16T07:16:37.576Z,62.93
2022-08-16T07:17:37.559Z,62.23
2022-08-16T07:18:37.537Z,63.46
2022-08-16T07:20:03.053Z,63.95
2022-08-16T07:20:47.314Z,63.16
2022-08-16T07:21:46.404Z,64.55
2022-08-16T07:22:39.738Z,63.13
2022-08-16T07:23:39.145Z,62.04
2022-08-16T07:24:45.833Z,64.62
2022-08-16T07:25:40.221Z,63.89
2022-08-16T07:26:39.130Z,61.61
2022-08-16T07:27:37.719Z,63.67
2022-08-16T07:28:37.454Z,60.39
2022-08-16T07:29:37.431Z,62.15
2022-08-16T07:30:45.923Z,60.66
2022-08-16T07:31:38.362Z,61.45
2022-08-16T07:32:37.419Z,61.91
2022-08-16T07:33:52.712Z,63.01
2022-08-16T07:34:37.743Z,61.49
2022-08-16T07:35:37.403Z,60.17
2022-08-16T07:36:37.376Z,59.65
2022-08-16T07:37:37.340Z,58.95
2022-08-16T07:38:37.335Z,59.03
2022-08-16T07:39:43.149Z,58.92
2022-08-16T07:40:59.451Z,58.20
2022-08-16T07:41:37.323Z,57.51
2022-08-16T07:42:37.286Z,57.41
2022-08-16T07:43:40.325Z,56.00
2022-08-16T07:44:50.734Z,55.24
2022-08-16T07:45:37.297Z,56.13
2022-08-16T07:46:39.617Z,56.92
2022-08-16T07:47:37.240Z,56.92
2022-08-16T07:48:37.224Z,55.30
2022-08-16T07:49:37.274Z,54.39
2022-08-16T07:50:55.943Z,53.80
2022-08-16T07:51:37.375Z,52.81
2022-08-16T07:52:38.926Z,53.20
2022-08-16T07:53:43.418Z,52.91
2022-08-16T07:54:39.155Z,54.17
2022-08-16T07:55:45.873Z,53.67
2022-08-16T07:56:37.532Z,52.98
2022-08-16T07:57:57.984Z,54.24
2022-08-16T07:58:37.124Z,53.94
2022-08-16T07:59:46.122Z,53.75
2022-08-16T08:00:37.159Z,51.47
2022-08-16T08:01:37.090Z,52.66
2022-08-16T08:02:37.085Z,52.76
2022-08-16T08:03:40.024Z,52.93
2022-08-16T08:04:37.055Z,50.46
2022-08-16T08:05:37.103Z,53.33
2022-08-16T08:06:37.047Z,50.83
2022-08-16T08:07:37.048Z,51.52
2022-08-16T08:08:50.260Z,50.93
2022-08-16T08:09:37.015Z,52.21
2022-08-16T08:10:37.062Z,52.91
2022-08-16T08:11:36.998Z,50.24
2022-08-16T08:12:36.994Z,51.72
2022-08-16T08:13:42.239Z,51.52
2022-08-16T08:14:36.973Z,50.71
2022-08-16T08:15:37.136Z,50.71
2022-08-16T08:16:36.969Z,49.43
2022-08-16T08:17:42.830Z,49.55
2022-08-16T08:18:36.934Z,51.25
2022-08-16T08:19:36.908Z,51.67
2022-08-16T08:20:36.927Z,52.46
2022-08-16T08:21:59.746Z,51.87
2022-08-16T08:22:36.900Z,53.92
2022-08-16T08:23:36.865Z,53.92
2022-08-16T08:24:36.857Z,51.45
2022-08-16T08:25:54.226Z,49.35
2022-08-16T08:26:36.846Z,51.52
2022-08-16T08:27:36.839Z,51.00
2022-08-16T08:28:36.830Z,51.37
2022-08-16T08:29:40.302Z,50.09
2022-08-16T08:30:52.004Z,49.60
2022-08-16T08:31:36.813Z,49.97
2022-08-16T08:32:59.610Z,50.95
2022-08-16T08:33:36.792Z,49.57
2022-08-16T08:34:36.793Z,48.66
2022-08-16T08:35:36.755Z,48.10
2022-08-16T08:36:37.129Z,47.90
2022-08-16T08:37:55.125Z,49.97
2022-08-16T08:38:45.543Z,50.07
2022-08-16T08:39:36.772Z,49.18
2022-08-16T08:40:36.694Z,49.87
2022-08-16T08:41:36.686Z,48.71
2022-08-16T08:42:36.682Z,49.50
2022-08-16T08:43:41.918Z,51.47
2022-08-16T08:44:36.700Z,49.99
2022-08-16T08:45:48.402Z,50.26
2022-08-16T08:46:37.796Z,49.48
2022-08-16T08:47:37.373Z,48.22
2022-08-16T08:48:37.439Z,49.01
2022-08-16T08:49:46.449Z,49.28
2022-08-16T08:50:36.598Z,51.15
2022-08-16T08:51:37.122Z,47.70
2022-08-16T08:52:37.711Z,48.49
2022-08-16T08:53:36.597Z,48.47
2022-08-16T08:54:36.568Z,47.88
2022-08-16T08:55:36.542Z,48.57
2022-08-16T08:56:36.548Z,47.66
2022-08-16T08:57:36.524Z,47.56
2022-08-16T08:58:36.558Z,48.74
2022-08-16T08:59:40.621Z,46.97
2022-08-16T09:00:51.081Z,45.78
2022-08-16T09:01:42.649Z,47.97
2022-08-16T09:02:36.496Z,46.69
2022-08-16T09:03:36.561Z,46.40
2022-08-16T09:04:36.472Z,46.81
2022-08-16T09:05:37.345Z,47.72
2022-08-16T09:06:36.430Z,51.28
2022-08-16T09:08:01.164Z,46.84
2022-08-16T09:08:36.443Z,47.70
2022-08-16T09:09:41.119Z,46.42
2022-08-16T09:10:39.538Z,44.94
2022-08-16T09:11:40.953Z,45.73
2022-08-16T09:12:37.317Z,47.11
2022-08-16T09:13:36.392Z,45.93
2022-08-16T09:14:36.353Z,46.52
2022-08-16T09:15:36.337Z,48.69
2022-08-16T09:17:01.716Z,46.62
2022-08-16T09:17:51.343Z,46.50
2022-08-16T09:18:36.762Z,46.10
2022-08-16T09:19:36.312Z,44.03
2022-08-16T09:20:36.295Z,49.06
2022-08-16T09:21:36.287Z,45.31
2022-08-16T09:22:36.280Z,44.92
2022-08-16T09:23:36.903Z,44.72
2022-08-16T09:24:51.501Z,45.21
2022-08-16T09:25:36.352Z,44.82
2022-08-16T09:26:44.143Z,43.74
2022-08-16T09:27:57.200Z,45.12
2022-08-16T09:29:15.751Z,47.46
2022-08-16T09:29:44.817Z,45.98
2022-08-16T09:30:44.343Z,42.71
2022-08-16T09:31:36.201Z,42.79
2022-08-16T09:32:36.199Z,43.77
2022-08-16T09:33:37.039Z,42.40
2022-08-16T09:34:36.167Z,42.20
2022-08-16T09:35:37.374Z,42.41
2022-08-16T09:36:36.144Z,43.13
2022-08-16T09:37:37.101Z,43.74
2022-08-16T09:38:36.134Z,43.86
2022-08-16T09:39:41.125Z,43.66
2022-08-16T09:40:42.391Z,45.04
2022-08-16T09:41:36.086Z,44.15
2022-08-16T09:42:55.884Z,46.00
2022-08-16T09:43:58.067Z,45.31
2022-08-16T09:45:12.491Z,43.84
2022-08-16T09:45:36.058Z,45.90
2022-08-16T09:46:48.752Z,43.32
2022-08-16T09:47:56.674Z,43.64
2022-08-16T09:48:44.364Z,43.44
2022-08-16T09:49:37.127Z,45.51
2022-08-16T09:50:38.536Z,43.15
2022-08-16T09:51:36.740Z,44.43
2022-08-16T09:52:35.972Z,44.60
2022-08-16T09:53:35.972Z,44.98
2022-08-16T09:54:35.955Z,46.55
2022-08-16T09:55:44.604Z,47.02
2022-08-16T09:56:35.949Z,43.46
2022-08-16T09:57:35.914Z,41.69
2022-08-16T09:58:41.614Z,41.77
2022-08-16T09:59:38.636Z,42.85
2022-08-16T10:00:44.299Z,42.06
2022-08-16T10:01:35.889Z,43.71
2022-08-16T10:02:35.874Z,41.45
2022-08-16T10:03:36.082Z,40.66
2022-08-16T10:04:53.062Z,42.16
2022-08-16T10:05:35.854Z,41.56
2022-08-16T10:06:35.824Z,42.75
2022-08-16T10:07:44.261Z,41.96
2022-08-16T10:09:05.758Z,41.96
2022-08-16T10:09:53.369Z,44.42
2022-08-16T10:10:35.803Z,42.55
2022-08-16T10:11:50.293Z,42.16
2022-08-16T10:12:42.575Z,41.47
2022-08-16T10:13:35.796Z,42.28
2022-08-16T10:14:35.750Z,42.06
2022-08-16T10:15:35.738Z,40.98
2022-08-16T10:16:35.761Z,41.88
2022-08-16T10:17:35.725Z,42.79
2022-08-16T10:19:00.841Z,41.80
2022-08-16T10:19:35.722Z,42.00
2022-08-16T10:20:35.687Z,43.38
2022-08-16T10:21:35.748Z,41.78
2022-08-16T10:22:35.660Z,41.19
2022-08-16T10:23:35.650Z,41.86
2022-08-16T10:24:35.676Z,40.69
2022-08-16T10:27:16.797Z,40.78
2022-08-16T10:27:29.987Z,40.29
2022-08-16T10:27:56.927Z,40.78
2022-08-16T10:28:39.555Z,42.16
2022-08-16T10:30:00.206Z,42.08
2022-08-16T10:30:36.927Z,39.90
2022-08-16T10:31:45.548Z,42.18
2022-08-16T10:32:36.696Z,42.08
2022-08-16T10:33:40.263Z,42.45
2022-08-16T10:34:36.746Z,41.09
2022-08-16T10:35:36.665Z,41.98
2022-08-16T10:36:39.103Z,41.51
2022-08-16T10:37:36.742Z,42.20
2022-08-16T10:38:37.185Z,42.10
2022-08-16T10:39:42.071Z,42.32
2022-08-16T10:40:36.657Z,42.20
2022-08-16T10:41:36.608Z,40.03
2022-08-16T10:42:36.589Z,41.02
2022-08-16T10:43:36.592Z,40.23
2022-08-16T10:44:36.611Z,42.12
2022-08-16T10:45:37.477Z,42.12
2022-08-16T10:46:41.581Z,42.71
2022-08-16T10:47:46.669Z,40.94
2022-08-16T10:48:36.558Z,41.04
2022-08-16T10:49:36.537Z,43.99
2022-08-16T10:50:36.508Z,43.99
2022-08-16T10:52:01.846Z,42.12
2022-08-16T10:53:36.504Z,42.93
2022-08-16T10:54:58.388Z,42.63
2022-08-16T10:55:37.613Z,42.02
2022-08-16T10:56:55.325Z,42.52
2022-08-16T10:57:36.438Z,41.83
2022-08-16T10:58:36.464Z,43.50
2022-08-16T10:59:43.999Z,41.04
2022-08-16T11:00:36.417Z,42.30
2022-08-16T11:01:43.105Z,41.02
2022-08-16T11:03:37.431Z,40.43
2022-08-16T11:03:46.836Z,41.90
2022-08-16T11:06:36.420Z,40.82
2022-08-16T11:07:51.390Z,40.43
2022-08-16T11:08:38.797Z,41.02
2022-08-16T11:09:43.893Z,41.31
2022-08-16T11:11:36.405Z,41.31
2022-08-16T11:12:36.307Z,41.51
2022-08-16T11:14:36.284Z,41.02
2022-08-16T11:15:36.519Z,43.28
2022-08-16T11:17:36.238Z,40.80
2022-08-16T11:19:03.182Z,40.61
2022-08-16T11:20:00.537Z,40.11
2022-08-16T11:20:41.060Z,41.78
2022-08-16T11:21:36.393Z,40.70
2022-08-16T11:22:42.072Z,41.00
2022-08-16T11:23:36.232Z,40.70
2022-08-16T11:24:39.722Z,41.41
2022-08-16T11:26:36.149Z,40.74
2022-08-16T11:27:36.359Z,42.14
2022-08-16T11:29:12.749Z,44.11
2022-08-16T11:29:36.183Z,40.16
2022-08-16T11:30:38.786Z,40.84
2022-08-16T11:31:37.011Z,41.16
2022-08-16T11:32:36.085Z,40.76
2022-08-16T11:33:52.903Z,39.97
2022-08-16T11:35:03.961Z,40.78
2022-08-16T11:35:43.940Z,41.08
2022-08-16T11:36:36.060Z,40.98
2022-08-16T11:38:05.948Z,41.77
2022-08-16T11:38:55.347Z,40.69
2022-08-16T11:39:36.066Z,40.11
2022-08-16T11:40:36.240Z,40.61
2022-08-16T11:41:36.009Z,42.55
2022-08-16T11:42:37.710Z,41.96
2022-08-16T11:43:35.966Z,39.70
2022-08-16T11:44:52.346Z,41.38
2022-08-16T11:45:35.971Z,41.27
2022-08-16T11:46:44.100Z,42.16
2022-08-16T11:47:35.947Z,41.17
2022-08-16T11:48:35.932Z,39.79
2022-08-16T11:49:35.963Z,41.38
2022-08-16T11:50:35.920Z,41.27
2022-08-16T11:51:35.905Z,42.16
2022-08-16T11:52:35.878Z,42.85
2022-08-16T11:53:36.238Z,41.99
2022-08-16T11:54:36.727Z,43.84
2022-08-16T11:55:38.080Z,43.24
2022-08-16T11:56:51.658Z,42.36
2022-08-16T11:57:35.828Z,43.05
2022-08-16T11:58:35.835Z,41.17
2022-08-16T11:59:35.840Z,41.67
2022-08-16T12:00:50.741Z,42.16
2022-08-16T12:01:44.557Z,41.96
2022-08-16T12:02:35.784Z,41.75
2022-08-16T12:03:35.823Z,41.86
2022-08-16T12:04:35.851Z,45.09
2022-08-16T12:05:35.754Z,44.70
2022-08-16T12:06:35.746Z,44.78
2022-08-16T12:07:35.723Z,41.24
2022-08-16T12:08:35.764Z,40.45
2022-08-16T12:09:41.258Z,41.53
2022-08-16T12:10:35.709Z,40.94
2022-08-16T12:11:35.698Z,41.93
2022-08-16T12:12:35.695Z,41.53
2022-08-16T12:13:35.685Z,41.16
2022-08-16T12:14:37.618Z,41.17
2022-08-16T12:15:35.671Z,42.55
2022-08-16T12:16:35.648Z,40.98
2022-08-16T12:17:35.646Z,41.20
2022-08-16T12:18:35.670Z,43.27
2022-08-16T12:19:35.871Z,44.25
2022-08-16T12:20:35.597Z,42.38
2022-08-16T12:21:36.083Z,42.07
2022-08-16T12:22:36.719Z,43.34
2022-08-16T12:23:35.585Z,42.65
2022-08-16T12:24:35.556Z,40.98
2022-08-16T12:25:35.538Z,39.97
2022-08-16T12:26:35.554Z,41.06
2022-08-16T12:27:35.536Z,40.94
2022-08-16T12:28:36.753Z,40.45
2022-08-16T12:29:35.507Z,41.53
2022-08-16T12:30:38.936Z,41.24
2022-08-16T12:31:35.487Z,42.89
2022-08-16T12:32:41.730Z,42.28
2022-08-16T12:33:44.420Z,40.29
2022-08-16T12:34:35.494Z,37.84
2022-08-16T12:35:35.467Z,40.86
2022-08-16T12:36:35.456Z,38.80
2022-08-16T12:37:35.433Z,39.09
2022-08-16T12:38:41.115Z,39.76
2022-08-16T12:39:35.480Z,39.95
2022-08-16T12:40:35.528Z,38.98
2022-08-16T12:41:35.399Z,39.86
2022-08-16T12:42:35.930Z,39.45
2022-08-16T12:43:35.367Z,39.62
2022-08-16T12:44:35.393Z,38.43
2022-08-16T12:45:35.571Z,36.86
2022-08-16T12:46:35.335Z,37.82
2022-08-16T12:47:35.319Z,37.41
2022-08-16T12:48:35.604Z,36.72
2022-08-16T12:49:42.177Z,37.12
2022-08-16T12:50:35.354Z,36.71
2022-08-16T12:51:58.516Z,36.32
2022-08-16T12:52:36.842Z,37.00
2022-08-16T12:53:35.272Z,35.52
2022-08-16T12:54:35.283Z,37.47
2022-08-16T12:55:42.205Z,35.91
2022-08-16T12:56:35.240Z,35.91
2022-08-16T12:57:36.331Z,36.71
2022-08-16T12:58:50.012Z,36.40
2022-08-16T12:59:35.254Z,36.59
2022-08-16T13:00:35.274Z,36.98
2022-08-16T13:01:35.192Z,36.69
2022-08-16T13:02:36.354Z,37.06
2022-08-16T13:03:40.189Z,36.87
2022-08-16T13:04:35.199Z,34.70
2022-08-16T13:05:35.202Z,34.50
2022-08-16T13:06:35.138Z,34.70
2022-08-16T13:07:37.463Z,35.75
2022-08-16T13:08:35.136Z,34.39
2022-08-16T13:09:37.732Z,34.67
2022-08-16T13:10:37.620Z,34.77
2022-08-16T13:11:35.083Z,35.45
2022-08-16T13:12:35.079Z,33.01
2022-08-16T13:13:35.072Z,33.77